DG5MLB Weather Reports


Display with metric or nautical units.
time (UTC)temp
F
wind
direction
speed
MPH
gust
MPH
rain 1hr
in
rain 24hr
in
rain mn
in
humidity
%
barometer
mb
20201128053136 29 150 0.0 1.0 0.00 0.00 0.00 93 1020.1
20201128051609 29 151 0.0 3.0 0.00 0.00 0.00 93 1020.1
20201128050141 29 135 2.0 6.0 0.00 0.00 0.00 93 1020.0
20201128044558 29 124 2.0 5.0 0.00 0.00 0.00 93 1020.2
20201128041556 29 104 0.0 3.0 0.00 0.00 0.00 93 1020.1
20201128040138 29 115 1.0 5.0 0.00 0.00 0.00 93 1020.1
20201128034613 29 119 0.0 3.0 0.00 0.00 0.00 93 1020.1
20201128033127 29 98 1.0 3.0 0.00 0.00 0.00 93 1020.2
20201128031624 29 99 0.0 5.0 0.00 0.00 0.00 93 1020.2
20201128030236 29 125 1.0 3.0 0.00 0.00 0.00 93 1020.2
20201128024523 29 96 0.0 2.0 0.00 0.00 0.00 93 1020.2
20201128023142 29 81 0.0 3.0 0.00 0.00 0.00 93 1020.2
20201128021530 29 148 0.0 3.0 0.00 0.00 0.00 93 1020.3
20201128020057 30 138 1.0 4.0 0.00 0.00 0.00 93 1020.5
20201128014530 29 120 0.0 2.0 0.00 0.00 0.00 93 1020.6
20201128013131 29 150 0.0 3.0 0.00 0.00 0.00 93 1020.5
20201128013021 29 122 0.0 3.0 0.00 0.00 0.00 93 1020.5
20201128011557 29 106 0.0 3.0 0.00 0.00 0.00 93 1020.5
20201128010213 29 143 1.0 4.0 0.00 0.00 0.00 93 1020.6
20201128004549 30 63 0.0 3.0 0.00 0.00 0.00 93 1020.6
20201128003212 30 66 0.0 3.0 0.00 0.00 0.00 93 1020.5
20201128001545 30 55 0.0 3.0 0.00 0.00 0.00 93 1020.6
20201128000153 30 55 0.0 4.0 0.00 0.00 0.00 93 1020.6
20201127234531 30 109 2.0 5.0 0.00 0.00 0.00 93 1020.7
20201127233358 30 74 0.0 3.0 0.00 0.00 0.00 93 1020.9
20201127231535 30 100 0.0 2.0 0.00 0.00 0.00 93 1020.9
20201127230128 30 118 2.0 5.0 0.00 0.00 0.00 93 1020.8
20201127224621 30 106 0.0 4.0 0.00 0.00 0.00 93 1020.9
20201127223010 30 123 1.0 5.0 0.00 0.00 0.00 92 1021.0
20201127221611 30 146 1.0 5.0 0.00 0.00 0.00 92 1021.1
20201127220023 30 135 0.0 3.0 0.00 0.00 0.00 92 1021.1
20201127214600 30 30 1.0 4.0 0.00 0.00 0.00 92 1021.2
20201127213025 31 114 0.0 5.0 0.00 0.00 0.00 92 1021.1
20201127211539 31 38 0.0 3.0 0.00 0.00 0.00 92 1021.2
20201127210022 31 53 1.0 4.0 0.00 0.00 0.00 92 1021.3
20201127204604 31 140 0.0 3.0 0.00 0.00 0.00 92 1021.3
20201127203013 31 92 0.0 2.0 0.00 0.00 0.00 92 1021.3
20201127201624 32 142 1.0 4.0 0.00 0.00 0.00 91 1021.4
20201127200015 32 82 0.0 3.0 0.00 0.00 0.00 92 1021.4
20201127194601 32 51 1.0 2.0 0.00 0.00 0.00 92 1021.2
20201127193031 31 91 0.0 4.0 0.00 0.00 0.00 91 1021.2
20201127191602 31 121 2.0 5.0 0.00 0.00 0.00 91 1021.2
20201127190115 32 111 1.0 4.0 0.00 0.00 0.00 91 1021.1
20201127184707 33 116 1.0 4.0 0.00 0.00 0.00 91 1021.0
20201127183035 34 126 2.0 4.0 0.00 0.00 0.00 91 1020.8
20201127181601 35 42 0.0 3.0 0.00 0.00 0.00 91 1020.8
20201127180051 35 100 3.0 6.0 0.00 0.00 0.00 91 1021.0
20201127174617 34 121 0.0 3.0 0.00 0.00 0.00 91 1020.9
20201127173123 34 121 1.0 4.0 0.00 0.00 0.00 91 1020.9
20201127171640 35 55 1.0 5.0 0.00 0.00 0.00 91 1020.9
20201127170114 35 29 0.0 3.0 0.00 0.00 0.00 91 1020.8
20201127163050 35 48 0.0 4.0 0.00 0.00 0.00 90 1020.8
20201127161516 35 46 0.0 3.0 0.00 0.00 0.00 90 1020.8
20201127160117 35 91 1.0 6.0 0.00 0.00 0.00 89 1020.7
20201127154508 36 98 1.0 4.0 0.00 0.00 0.00 88 1020.6
20201127153041 36 103 0.0 3.0 0.00 0.00 0.00 87 1020.5
20201127151522 36 78 1.0 5.0 0.00 0.00 0.00 86 1020.6
20201127150055 37 61 0.0 4.0 0.00 0.00 0.00 84 1020.7
20201127144523 38 54 2.0 4.0 0.00 0.00 0.00 81 1020.6
20201127143210 40 83 1.0 6.0 0.00 0.00 0.00 80 1020.7
20201127141518 41 67 2.0 4.0 0.00 0.00 0.00 78 1020.7
20201127140126 41 43 1.0 5.0 0.00 0.00 0.00 77 1020.7
20201127134526 42 32 3.0 6.0 0.00 0.00 0.00 75 1020.8
20201127133147 42 57 3.0 6.0 0.00 0.00 0.00 75 1020.9
20201127131520 43 58 2.0 6.0 0.00 0.00 0.00 72 1020.9
20201127130116 43 23 1.0 7.0 0.00 0.00 0.00 72 1021.0
20201127124542 44 35 2.0 6.0 0.00 0.00 0.00 71 1021.1
20201127123136 44 360 2.0 6.0 0.00 0.00 0.00 71 1021.1
20201127121712 44 5 3.0 6.0 0.00 0.00 0.00 67 1021.2
20201127120152 45 45 1.0 5.0 0.00 0.00 0.00 64 1021.3
20201127114706 45 109 2.0 5.0 0.00 0.00 0.00 65 1021.3
20201127113032 44 92 1.0 5.0 0.00 0.00 0.00 67 1021.5
20201127111558 44 52 0.0 4.0 0.00 0.00 0.00 72 1021.6
20201127110039 42 87 1.0 4.0 0.00 0.00 0.00 73 1021.8
20201127104601 41 55 2.0 4.0 0.00 0.00 0.00 77 1021.9
20201127103050 41 38 1.0 4.0 0.00 0.00 0.00 80 1022.2
20201127101652 40 37 0.0 3.0 0.00 0.00 0.00 84 1022.3
20201127100215 38 329 1.0 3.0 0.00 0.00 0.00 87 1022.5
20201127094544 38 123 0.0 0.0 0.00 0.00 0.00 91 1022.5
20201127093141 36 123 0.0 1.0 0.00 0.00 0.00 93 1022.7
20201127091556 34 123 0.0 2.0 0.00 0.00 0.00 94 1022.8
20201127090117 32 135 1.0 3.0 0.00 0.00 0.00 94 1022.7
20201127084528 31 159 0.0 3.0 0.00 0.00 0.00 94 1022.7
20201127083330 30 160 0.0 2.0 0.00 0.00 0.00 94 1022.9
20201127081549 29 157 0.0 4.0 0.00 0.00 0.00 94 1022.8
20201127080200 28 157 0.0 3.0 0.00 0.00 0.00 93 1022.7
20201127074518 27 125 1.0 3.0 0.00 0.00 0.00 93 1022.8
20201127073232 27 157 0.0 3.0 0.00 0.00 0.00 93 1023.0
20201127071522 27 163 0.0 3.0 0.00 0.00 0.00 93 1023.1
20201127070104 26 182 0.0 2.0 0.00 0.00 0.00 93 1022.9
20201127064509 27 201 0.0 0.0 0.00 0.00 0.00 93 1022.9
20201127063059 27 201 0.0 2.0 0.00 0.00 0.00 94 1022.8
20201127061515 27 201 0.0 0.0 0.00 0.00 0.00 94 1022.8
20201127060104 27 201 0.0 0.0 0.00 0.00 0.00 94 1022.7
20201127054518 27 201 0.0 2.0 0.00 0.00 0.00 93 1022.8